Time;durP1;ratioP1;P1;durP2;ratioP2;P2;SDS_P1;SDS_P2;PMS_P1;PMS_P2;Temp;Humidity;BMP_temperature;BMP_pressure;BME280_temperature;BME280_humidity;BME280_pressure;Samples;Min_cycle;Max_cycle;Signal;HPM_P1;HPM_P2
2022/06/05 00:01:28;;;;;;;;;;;12.70;99.90;;;;;;5031731;28;38575;-54
2022/06/05 00:03:59;;;;;;;;;;;12.70;99.90;;;;;;5031865;28;35876;-53
2022/06/05 00:06:31;;;;;;;;;;;12.70;99.90;;;;;;5032000;28;37020;-53
2022/06/05 00:09:05;;;;;;;;;;;12.70;99.90;;;;;;5035065;28;38600;-52
2022/06/05 00:11:37;;;;;;;;;;;12.70;99.90;;;;;;5034606;28;38206;-53
2022/06/05 00:14:04;;;;;;;;;;;12.70;99.90;;;;;;5034100;28;37441;-53
2022/06/05 00:16:33;;;;;;;;;;;12.80;99.90;;;;;;5035721;28;36932;-54
2022/06/05 00:19:00;;;;;;;;;;;12.80;99.90;;;;;;5034928;28;38314;-53
2022/06/05 00:21:27;;;;;;;;;;;12.80;99.90;;;;;;5033769;28;37797;-53
2022/06/05 00:23:55;;;;;;;;;;;12.80;99.90;;;;;;5034870;28;38143;-53
2022/06/05 00:26:26;;;;;;;;;;;12.80;99.90;;;;;;5035145;28;36959;-54
2022/06/05 00:29:00;;;;;;;;;;;12.80;99.90;;;;;;5034343;28;38400;-54
2022/06/05 00:31:32;;;;;;;;;;;12.80;99.90;;;;;;5034510;28;36856;-54
2022/06/05 00:34:00;;;;;;;;;;;12.90;99.90;;;;;;5033755;28;36995;-54
2022/06/05 00:36:42;;;;;;;;;;;12.90;99.90;;;;;;5033888;28;35084;-53
2022/06/05 00:39:13;;;;;;;;;;;12.90;99.90;;;;;;5025796;28;38609;-53
2022/06/05 00:41:45;;;;;;;;;;;12.90;99.90;;;;;;5034540;28;37714;-54
2022/06/05 00:44:16;;;;;;;;;;;12.80;99.90;;;;;;5034853;28;37618;-53
2022/06/05 00:46:44;;;;;;;;;;;12.80;99.90;;;;;;5034562;28;37157;-53
2022/06/05 00:49:12;;;;;;;;;;;12.80;99.90;;;;;;5034726;28;36332;-53
2022/06/05 00:51:39;;;;;;;;;;;12.80;99.90;;;;;;5034118;28;38246;-53
2022/06/05 00:54:07;;;;;;;;;;;12.80;99.90;;;;;;5026849;28;37167;-54
2022/06/05 00:56:34;;;;;;;;;;;12.70;99.90;;;;;;5034460;28;37178;-52
2022/06/05 00:59:01;;;;;;;;;;;12.80;99.90;;;;;;5033878;28;38656;-53
2022/06/05 01:01:28;;;;;;;;;;;12.70;99.90;;;;;;5034720;28;38080;-54
2022/06/05 01:04:01;;;;;;;;;;;12.70;99.90;;;;;;5034348;28;37829;-54
2022/06/05 01:06:30;;;;;;;;;;;12.70;99.90;;;;;;5034567;28;36358;-53
2022/06/05 01:08:57;;;;;;;;;;;12.70;99.90;;;;;;5034398;28;39528;-54
2022/06/05 01:11:31;;;;;;;;;;;12.70;99.90;;;;;;5033672;28;39034;-53
2022/06/05 01:14:03;;;;;;;;;;;12.70;99.90;;;;;;5034462;28;37802;-52
2022/06/05 01:16:31;;;;;;;;;;;12.70;99.90;;;;;;5034588;28;37634;-53
2022/06/05 01:19:07;;;;;;;;;;;12.70;99.90;;;;;;5034426;28;37799;-52
2022/06/05 01:21:46;;;;;;;;;;;12.70;99.90;;;;;;5033861;28;38174;-53
2022/06/05 01:24:20;;;;;;;;;;;12.70;99.90;;;;;;5033672;28;38372;-53
2022/06/05 01:26:50;;;;;;;;;;;12.70;99.90;;;;;;5034300;28;37107;-54
2022/06/05 01:29:19;;;;;;;;;;;12.70;99.90;;;;;;5034311;28;37576;-53
2022/06/05 01:31:51;;;;;;;;;;;12.80;99.90;;;;;;5033358;28;38656;-54
2022/06/05 01:34:22;;;;;;;;;;;12.70;99.90;;;;;;5033911;28;37045;-52
2022/06/05 01:36:51;;;;;;;;;;;12.80;99.90;;;;;;5033557;28;36928;-52
2022/06/05 01:39:22;;;;;;;;;;;12.80;99.90;;;;;;5033863;28;38932;-53
2022/06/05 01:41:53;;;;;;;;;;;12.80;99.90;;;;;;5033075;28;37637;-52
2022/06/05 01:44:22;;;;;;;;;;;12.80;99.90;;;;;;5032965;28;37052;-53
2022/06/05 01:46:50;;;;;;;;;;;12.80;99.90;;;;;;5033954;28;36287;-53
2022/06/05 01:49:18;;;;;;;;;;;12.80;99.90;;;;;;5033657;28;36451;-54
2022/06/05 01:51:52;;;;;;;;;;;12.80;99.90;;;;;;5033753;28;37704;-52
2022/06/05 01:54:21;;;;;;;;;;;12.80;99.90;;;;;;5033528;28;37153;-54
2022/06/05 01:56:51;;;;;;;;;;;12.80;99.90;;;;;;5033642;28;36127;-51
2022/06/05 01:59:20;;;;;;;;;;;12.80;99.90;;;;;;5033719;28;38525;-54
2022/06/05 02:01:50;;;;;;;;;;;12.80;99.90;;;;;;5033911;28;39180;-52
2022/06/05 02:04:19;;;;;;;;;;;12.90;99.90;;;;;;5033603;28;37153;-54
2022/06/05 02:06:48;;;;;;;;;;;12.90;99.90;;;;;;5033577;28;36453;-53
2022/06/05 02:09:19;;;;;;;;;;;12.90;99.90;;;;;;5033729;28;38973;-53
2022/06/05 02:11:47;;;;;;;;;;;12.90;99.90;;;;;;5033344;28;38741;-52
2022/06/05 02:14:15;;;;;;;;;;;12.90;99.90;;;;;;5033196;28;36819;-54
2022/06/05 02:16:43;;;;;;;;;;;12.90;99.90;;;;;;5033837;28;37182;-53
2022/06/05 02:19:15;;;;;;;;;;;12.90;99.90;;;;;;5034253;28;31644;-52
2022/06/05 02:21:42;;;;;;;;;;;12.90;99.90;;;;;;5033032;28;36520;-53
2022/06/05 02:24:10;;;;;;;;;;;13.00;99.90;;;;;;5033360;28;38256;-54
2022/06/05 02:26:38;;;;;;;;;;;13.00;99.90;;;;;;5033797;28;37160;-53
2022/06/05 02:29:08;;;;;;;;;;;13.00;99.90;;;;;;5033376;28;37268;-54
2022/06/05 02:31:39;;;;;;;;;;;13.00;99.90;;;;;;5032873;28;39038;-54
2022/06/05 02:34:10;;;;;;;;;;;13.00;99.90;;;;;;5033294;28;37838;-53
2022/06/05 02:36:43;;;;;;;;;;;13.00;99.90;;;;;;5032924;28;36109;-53
2022/06/05 02:39:13;;;;;;;;;;;13.00;99.90;;;;;;5032948;28;36354;-53
2022/06/05 02:41:43;;;;;;;;;;;13.00;99.90;;;;;;5033131;28;38719;-52
2022/06/05 02:44:31;;;;;;;;;;;13.00;99.90;;;;;;5033324;28;35918;-53
2022/06/05 02:47:02;;;;;;;;;;;13.00;99.90;;;;;;5033250;28;36147;-53
2022/06/05 02:49:30;;;;;;;;;;;13.00;99.90;;;;;;5033194;28;39255;-54
2022/06/05 02:51:59;;;;;;;;;;;13.00;99.90;;;;;;5032193;28;36932;-53
2022/06/05 02:54:27;;;;;;;;;;;13.00;99.90;;;;;;5033121;28;37340;-52
2022/06/05 02:56:55;;;;;;;;;;;12.90;99.90;;;;;;5033010;28;36500;-52
2022/06/05 02:59:22;;;;;;;;;;;13.00;99.90;;;;;;5032929;28;36248;-53
2022/06/05 03:04:35;;;;;;;;;;;12.90;99.90;;;;;;5033757;28;39515;-52
2022/06/05 03:07:02;;;;;;;;;;;13.00;99.90;;;;;;5032928;28;36904;-53
2022/06/05 03:09:29;;;;;;;;;;;13.00;99.90;;;;;;5032616;28;37853;-51
2022/06/05 03:11:56;;;;;;;;;;;13.00;99.90;;;;;;5032285;28;39666;-53
2022/06/05 03:14:24;;;;;;;;;;;13.00;99.90;;;;;;5031659;28;38765;-52
2022/06/05 03:16:52;;;;;;;;;;;13.00;99.90;;;;;;5032574;28;35116;-54
2022/06/05 03:19:19;;;;;;;;;;;13.00;99.90;;;;;;5032294;28;41659;-51
2022/06/05 03:21:47;;;;;;;;;;;13.00;99.90;;;;;;5032566;28;38960;-53
2022/06/05 03:24:14;;;;;;;;;;;13.00;99.90;;;;;;5032347;28;38584;-53
2022/06/05 03:26:42;;;;;;;;;;;12.90;99.90;;;;;;5032280;28;34926;-53
2022/06/05 03:29:09;;;;;;;;;;;13.00;99.90;;;;;;5032357;28;38942;-52
2022/06/05 03:31:36;;;;;;;;;;;13.00;99.90;;;;;;5031911;28;37441;-52
2022/06/05 03:34:03;;;;;;;;;;;13.00;99.90;;;;;;5032103;28;38065;-53
2022/06/05 03:36:30;;;;;;;;;;;13.00;99.90;;;;;;5031459;28;36203;-53
2022/06/05 03:38:58;;;;;;;;;;;13.00;99.90;;;;;;5031297;28;37804;-53
2022/06/05 03:41:25;;;;;;;;;;;13.10;99.90;;;;;;5031434;28;38584;-53
2022/06/05 03:43:52;;;;;;;;;;;13.00;99.90;;;;;;5034769;28;36175;-51
2022/06/05 03:46:19;;;;;;;;;;;13.00;99.90;;;;;;5035595;28;37343;-54
2022/06/05 03:48:46;;;;;;;;;;;13.10;99.90;;;;;;5035778;28;37755;-52
2022/06/05 03:51:15;;;;;;;;;;;13.10;99.90;;;;;;5035868;28;38990;-52
2022/06/05 03:53:42;;;;;;;;;;;13.10;99.90;;;;;;5035727;28;37792;-52
2022/06/05 03:56:10;;;;;;;;;;;13.10;99.90;;;;;;5035794;28;37492;-54
2022/06/05 03:58:38;;;;;;;;;;;13.10;99.90;;;;;;5035533;28;38782;-54
2022/06/05 04:01:07;;;;;;;;;;;13.10;99.90;;;;;;5035792;28;37670;-52
2022/06/05 04:03:34;;;;;;;;;;;13.20;99.90;;;;;;5034959;28;37168;-52
2022/06/05 04:06:02;;;;;;;;;;;13.20;99.90;;;;;;5035861;28;37758;-53
2022/06/05 04:08:29;;;;;;;;;;;13.20;99.90;;;;;;5035580;28;38691;-52
2022/06/05 04:10:56;;;;;;;;;;;13.20;99.90;;;;;;5034594;28;37690;-52
2022/06/05 04:13:24;;;;;;;;;;;13.20;99.90;;;;;;5030095;28;38229;-53
2022/06/05 04:15:52;;;;;;;;;;;13.30;99.90;;;;;;5034567;28;36970;-50
2022/06/05 04:18:19;;;;;;;;;;;13.40;99.90;;;;;;5035258;28;35486;-52
2022/06/05 04:20:46;;;;;;;;;;;13.40;99.90;;;;;;5034506;28;37749;-52
2022/06/05 04:23:13;;;;;;;;;;;13.40;99.90;;;;;;5035705;28;37770;-52
2022/06/05 04:25:42;;;;;;;;;;;13.40;99.90;;;;;;5034676;28;36263;-52
2022/06/05 04:28:09;;;;;;;;;;;13.50;99.90;;;;;;5034470;28;37692;-52
2022/06/05 04:30:37;;;;;;;;;;;13.50;99.90;;;;;;5034635;28;37813;-53
2022/06/05 04:33:05;;;;;;;;;;;13.50;99.90;;;;;;5034355;28;37268;-51
2022/06/05 04:35:33;;;;;;;;;;;13.50;99.90;;;;;;5035119;28;35563;-52
2022/06/05 04:38:00;;;;;;;;;;;13.60;99.90;;;;;;5034176;28;38444;-53
2022/06/05 04:40:27;;;;;;;;;;;13.70;99.90;;;;;;5034294;28;38202;-53
2022/06/05 04:42:54;;;;;;;;;;;13.80;99.90;;;;;;5034326;28;37355;-52
2022/06/05 04:45:21;;;;;;;;;;;14.00;99.90;;;;;;5034198;28;37177;-53
2022/06/05 04:47:50;;;;;;;;;;;14.20;99.90;;;;;;5034185;28;37048;-54
2022/06/05 04:50:18;;;;;;;;;;;14.30;99.90;;;;;;5034416;28;37732;-53
2022/06/05 04:52:45;;;;;;;;;;;14.40;99.90;;;;;;5033855;28;36768;-52
2022/06/05 04:55:12;;;;;;;;;;;14.50;99.90;;;;;;5033995;28;38130;-52
2022/06/05 04:57:39;;;;;;;;;;;14.50;99.90;;;;;;5034436;28;39304;-52
2022/06/05 05:00:07;;;;;;;;;;;14.50;99.90;;;;;;5033337;28;37805;-53
2022/06/05 05:02:34;;;;;;;;;;;14.50;99.90;;;;;;5033964;28;37853;-52
2022/06/05 05:05:03;;;;;;;;;;;14.40;99.90;;;;;;5033632;28;38458;-51
2022/06/05 05:07:30;;;;;;;;;;;14.40;99.90;;;;;;5034459;28;40381;-53
2022/06/05 05:09:57;;;;;;;;;;;14.40;99.90;;;;;;5033904;28;38518;-53
2022/06/05 05:12:24;;;;;;;;;;;14.30;99.90;;;;;;5034476;28;35865;-53
2022/06/05 05:14:52;;;;;;;;;;;14.30;99.90;;;;;;5034413;28;36391;-53
2022/06/05 05:17:20;;;;;;;;;;;14.30;99.90;;;;;;5033851;28;38583;-53
2022/06/05 05:19:47;;;;;;;;;;;14.30;99.90;;;;;;5034246;28;36652;-53
2022/06/05 05:22:15;;;;;;;;;;;14.30;99.90;;;;;;5033763;28;37256;-52
2022/06/05 05:24:43;;;;;;;;;;;14.30;99.90;;;;;;5034011;28;37051;-52
2022/06/05 05:27:10;;;;;;;;;;;14.40;99.90;;;;;;5034875;28;37370;-53
2022/06/05 05:29:39;;;;;;;;;;;14.60;99.90;;;;;;5033908;28;37684;-53
2022/06/05 05:32:06;;;;;;;;;;;14.80;99.90;;;;;;5033811;28;35914;-52
2022/06/05 05:34:33;;;;;;;;;;;15.10;99.90;;;;;;5034036;28;36449;-53
2022/06/05 05:37:00;;;;;;;;;;;15.30;99.90;;;;;;5033963;28;38644;-53
2022/06/05 05:42:14;;;;;;;;;;;15.60;99.90;;;;;;5034475;28;40048;-51
2022/06/05 05:44:42;;;;;;;;;;;15.80;99.90;;;;;;5032891;28;36082;-53
2022/06/05 05:47:11;;;;;;;;;;;15.90;99.90;;;;;;5033679;28;36534;-53
2022/06/05 05:49:38;;;;;;;;;;;16.00;99.90;;;;;;5033730;28;37594;-52
2022/06/05 05:52:06;;;;;;;;;;;16.00;99.90;;;;;;5033239;28;37258;-53
2022/06/05 05:54:34;;;;;;;;;;;16.00;99.90;;;;;;5033249;28;36212;-53
2022/06/05 05:57:02;;;;;;;;;;;16.00;99.90;;;;;;5033327;28;37801;-53
2022/06/05 05:59:29;;;;;;;;;;;16.00;99.90;;;;;;5034114;28;37602;-53
2022/06/05 06:01:56;;;;;;;;;;;16.00;99.90;;;;;;5032803;28;38521;-53
2022/06/05 06:04:23;;;;;;;;;;;16.00;99.90;;;;;;5033174;28;36167;-53
2022/06/05 06:06:50;;;;;;;;;;;15.90;99.90;;;;;;5033580;28;38024;-53
2022/06/05 06:09:17;;;;;;;;;;;15.90;99.90;;;;;;5032729;28;38435;-53
2022/06/05 06:11:46;;;;;;;;;;;15.80;99.90;;;;;;5033769;28;35977;-52
2022/06/05 06:14:13;;;;;;;;;;;15.80;99.90;;;;;;5033625;28;35421;-52
2022/06/05 06:16:40;;;;;;;;;;;15.80;99.90;;;;;;5033295;28;38565;-53
2022/06/05 06:19:07;;;;;;;;;;;15.70;99.90;;;;;;5033036;28;36341;-52
2022/06/05 06:21:34;;;;;;;;;;;15.70;99.90;;;;;;5033013;28;37889;-53
2022/06/05 06:24:01;;;;;;;;;;;15.70;99.90;;;;;;5033423;28;35116;-53
2022/06/05 06:26:28;;;;;;;;;;;15.80;99.90;;;;;;5033948;28;39279;-53
2022/06/05 06:28:56;;;;;;;;;;;15.80;99.90;;;;;;5033529;28;37543;-52
2022/06/05 06:31:23;;;;;;;;;;;15.80;99.90;;;;;;5033187;28;36022;-54
2022/06/05 06:33:50;;;;;;;;;;;15.80;99.90;;;;;;5033298;28;37039;-52
2022/06/05 06:36:18;;;;;;;;;;;15.80;99.90;;;;;;5033122;28;38156;-53
2022/06/05 06:38:45;;;;;;;;;;;15.80;99.90;;;;;;5033143;28;36583;-51
2022/06/05 06:41:13;;;;;;;;;;;15.80;99.90;;;;;;5033692;28;37563;-53
2022/06/05 06:43:42;;;;;;;;;;;15.80;99.90;;;;;;5032583;28;37827;-53
2022/06/05 06:46:10;;;;;;;;;;;15.90;99.90;;;;;;5033057;28;37389;-51
2022/06/05 06:48:38;;;;;;;;;;;15.90;99.90;;;;;;5032646;28;38495;-52
2022/06/05 06:51:06;;;;;;;;;;;15.90;99.90;;;;;;5032125;28;37283;-51
2022/06/05 06:53:34;;;;;;;;;;;15.90;99.90;;;;;;5032381;28;37067;-54
2022/06/05 06:56:06;;;;;;;;;;;15.90;99.90;;;;;;5032633;28;38534;-52
2022/06/05 06:58:33;;;;;;;;;;;16.00;99.90;;;;;;5032091;28;36709;-54
2022/06/05 07:01:00;;;;;;;;;;;16.00;99.90;;;;;;5032650;28;37119;-52
2022/06/05 07:03:29;;;;;;;;;;;16.10;99.90;;;;;;5032539;28;35260;-53
2022/06/05 07:05:57;;;;;;;;;;;16.20;99.90;;;;;;5032280;28;37919;-52
2022/06/05 07:08:24;;;;;;;;;;;16.30;99.90;;;;;;5032694;28;37982;-53
2022/06/05 07:10:51;;;;;;;;;;;16.30;99.90;;;;;;5031483;28;38105;-52
2022/06/05 07:13:18;;;;;;;;;;;16.40;99.90;;;;;;5031487;28;36419;-52
2022/06/05 07:15:45;;;;;;;;;;;16.50;99.90;;;;;;5032686;28;37911;-52
2022/06/05 07:18:12;;;;;;;;;;;16.60;99.90;;;;;;5039251;28;36540;-53
2022/06/05 07:20:41;;;;;;;;;;;16.60;99.90;;;;;;5039147;28;38475;-52
2022/06/05 07:23:09;;;;;;;;;;;16.70;99.90;;;;;;5039899;28;36150;-53
2022/06/05 07:25:37;;;;;;;;;;;16.80;99.90;;;;;;5039160;28;37708;-54
2022/06/05 07:28:04;;;;;;;;;;;16.90;99.90;;;;;;5038114;28;37849;-53
2022/06/05 07:30:31;;;;;;;;;;;17.00;99.90;;;;;;5039196;28;37266;-53
2022/06/05 07:32:58;;;;;;;;;;;17.00;99.90;;;;;;5038888;28;37548;-53
2022/06/05 07:35:25;;;;;;;;;;;17.20;99.90;;;;;;5039307;28;36444;-53
2022/06/05 07:37:54;;;;;;;;;;;17.30;99.90;;;;;;5039089;28;37802;-54
2022/06/05 07:40:21;;;;;;;;;;;17.30;99.90;;;;;;5039058;28;36998;-54
2022/06/05 07:42:48;;;;;;;;;;;17.40;99.90;;;;;;5039089;28;36403;-53
2022/06/05 07:45:16;;;;;;;;;;;17.50;99.90;;;;;;5038516;28;38240;-54
2022/06/05 07:47:43;;;;;;;;;;;17.70;99.90;;;;;;5038937;28;39384;-53
2022/06/05 07:50:11;;;;;;;;;;;17.70;99.90;;;;;;5038524;28;35912;-54
2022/06/05 07:55:24;;;;;;;;;;;17.90;99.90;;;;;;5039250;28;38818;-54
2022/06/05 07:57:51;;;;;;;;;;;18.00;99.90;;;;;;5038800;28;37388;-53
2022/06/05 08:00:19;;;;;;;;;;;18.00;99.90;;;;;;5038770;28;38841;-53
2022/06/05 08:02:46;;;;;;;;;;;18.10;99.90;;;;;;5038421;28;36854;-53
2022/06/05 08:05:13;;;;;;;;;;;18.20;99.90;;;;;;5039497;28;37682;-54
2022/06/05 08:07:40;;;;;;;;;;;18.20;99.90;;;;;;5038177;28;38658;-54
2022/06/05 08:10:07;;;;;;;;;;;18.30;99.90;;;;;;5038548;28;36952;-54
2022/06/05 08:12:36;;;;;;;;;;;18.30;99.90;;;;;;5038293;28;37265;-55
2022/06/05 08:15:08;;;;;;;;;;;18.40;99.80;;;;;;5038410;28;39063;-54
2022/06/05 08:17:38;;;;;;;;;;;18.50;99.90;;;;;;5038200;28;36563;-53
2022/06/05 08:20:07;;;;;;;;;;;18.50;99.60;;;;;;5038373;28;37462;-54
2022/06/05 08:22:34;;;;;;;;;;;18.50;98.90;;;;;;5038169;28;37464;-54
2022/06/05 08:25:01;;;;;;;;;;;18.60;99.10;;;;;;5038639;28;37342;-54
2022/06/05 08:27:28;;;;;;;;;;;18.60;98.30;;;;;;5037712;28;37736;-54
2022/06/05 08:29:57;;;;;;;;;;;18.70;98.40;;;;;;5034343;28;36997;-54
2022/06/05 08:32:25;;;;;;;;;;;18.70;98.30;;;;;;5034876;28;37037;-55
2022/06/05 08:34:52;;;;;;;;;;;18.70;97.90;;;;;;5034319;28;36494;-53
2022/06/05 08:43:00;;;;;;;;;;;18.80;99.30;;;;;;5035126;28;37560;-54
2022/06/05 08:45:29;;;;;;;;;;;18.80;98.90;;;;;;5034077;28;37534;-54
2022/06/05 08:47:57;;;;;;;;;;;18.90;99.20;;;;;;5034505;28;36770;-54
2022/06/05 08:50:28;;;;;;;;;;;18.90;98.80;;;;;;5034543;28;37905;-53
2022/06/05 08:52:58;;;;;;;;;;;18.90;98.80;;;;;;5034493;28;36309;-57
2022/06/05 08:55:28;;;;;;;;;;;19.00;98.50;;;;;;5034450;28;38345;-54
2022/06/05 08:57:58;;;;;;;;;;;19.00;99.20;;;;;;5034277;28;38567;-54
2022/06/05 09:00:27;;;;;;;;;;;19.10;98.50;;;;;;5034427;28;37172;-54
2022/06/05 09:03:00;;;;;;;;;;;19.20;98.40;;;;;;5035222;28;36262;-54
2022/06/05 09:05:29;;;;;;;;;;;19.20;97.90;;;;;;5034507;28;37382;-54
2022/06/05 09:07:58;;;;;;;;;;;19.30;97.30;;;;;;5033908;28;38894;-54
2022/06/05 09:10:31;;;;;;;;;;;19.30;97.70;;;;;;5034360;28;36811;-54
2022/06/05 09:12:59;;;;;;;;;;;19.30;97.90;;;;;;5033492;28;36024;-54
2022/06/05 09:15:29;;;;;;;;;;;19.40;98.20;;;;;;5034102;28;37888;-54
2022/06/05 09:17:58;;;;;;;;;;;19.40;98.30;;;;;;5033986;28;40020;-54
2022/06/05 09:20:28;;;;;;;;;;;19.40;98.50;;;;;;5033888;28;38252;-54
2022/06/05 09:22:59;;;;;;;;;;;19.40;98.50;;;;;;5033506;28;37480;-54
2022/06/05 09:25:32;;;;;;;;;;;19.50;97.60;;;;;;5033806;28;37780;-54
2022/06/05 09:28:03;;;;;;;;;;;19.40;97.30;;;;;;5033546;28;38071;-54
2022/06/05 09:30:32;;;;;;;;;;;19.40;97.10;;;;;;5034549;28;37315;-54
2022/06/05 09:33:05;;;;;;;;;;;19.50;97.70;;;;;;5034121;28;35041;-54
2022/06/05 09:35:37;;;;;;;;;;;19.50;98.20;;;;;;5033362;28;38660;-54
2022/06/05 09:38:08;;;;;;;;;;;19.60;98.10;;;;;;5033030;28;38197;-54
2022/06/05 09:40:36;;;;;;;;;;;19.60;98.50;;;;;;5031946;28;39136;-53
2022/06/05 09:43:16;;;;;;;;;;;19.70;97.40;;;;;;5033468;28;35038;-54
2022/06/05 09:45:49;;;;;;;;;;;19.80;97.80;;;;;;5034133;28;36567;-54
2022/06/05 09:48:21;;;;;;;;;;;19.90;97.50;;;;;;5033298;28;39005;-54
2022/06/05 09:50:48;;;;;;;;;;;20.00;97.90;;;;;;5033029;28;38384;-54
2022/06/05 09:53:17;;;;;;;;;;;20.10;97.10;;;;;;5034061;28;36100;-54
2022/06/05 09:55:50;;;;;;;;;;;20.20;97.40;;;;;;5033631;28;38361;-53
2022/06/05 09:58:31;;;;;;;;;;;20.20;97.00;;;;;;5033510;28;38120;-54
2022/06/05 10:00:59;;;;;;;;;;;20.30;97.50;;;;;;5032801;28;38293;-54
2022/06/05 10:03:29;;;;;;;;;;;20.40;96.90;;;;;;5033523;28;36965;-54
2022/06/05 10:06:20;;;;;;;;;;;20.40;97.50;;;;;;5032279;28;38833;-54
2022/06/05 10:08:49;;;;;;;;;;;20.40;97.40;;;;;;5033828;28;39439;-54
2022/06/05 10:11:26;;;;;;;;;;;20.50;96.90;;;;;;5032895;28;38227;-54
2022/06/05 10:13:59;;;;;;;;;;;20.50;96.80;;;;;;5033185;28;37373;-52
2022/06/05 10:16:28;;;;;;;;;;;20.50;97.00;;;;;;5033375;28;38581;-54
2022/06/05 10:19:05;;;;;;;;;;;20.50;96.70;;;;;;5033059;28;38968;-54
2022/06/05 10:21:35;;;;;;;;;;;20.60;96.00;;;;;;5032902;28;37222;-54
2022/06/05 10:24:10;;;;;;;;;;;20.60;96.40;;;;;;5033147;28;36979;-54
2022/06/05 10:26:38;;;;;;;;;;;20.70;95.80;;;;;;5032798;28;37496;-52
2022/06/05 10:29:10;;;;;;;;;;;20.70;95.80;;;;;;5033707;28;38974;-54
2022/06/05 10:31:39;;;;;;;;;;;20.80;96.20;;;;;;5032743;28;37135;-54
2022/06/05 10:34:12;;;;;;;;;;;20.80;96.70;;;;;;5032893;28;34931;-54
2022/06/05 10:36:50;;;;;;;;;;;20.90;95.20;;;;;;5032707;28;37633;-54
2022/06/05 10:39:19;;;;;;;;;;;20.90;95.60;;;;;;5033062;28;39890;-53
2022/06/05 10:41:48;;;;;;;;;;;20.90;94.90;;;;;;5033090;28;37221;-53
2022/06/05 10:44:19;;;;;;;;;;;20.90;95.30;;;;;;5032809;28;35110;-54
2022/06/05 10:46:54;;;;;;;;;;;20.90;95.30;;;;;;5032564;28;38748;-54
2022/06/05 10:49:28;;;;;;;;;;;20.90;94.80;;;;;;5032985;28;36866;-52
2022/06/05 10:51:59;;;;;;;;;;;20.90;94.80;;;;;;5032336;28;37963;-54
2022/06/05 10:54:31;;;;;;;;;;;20.90;95.70;;;;;;5033074;28;36251;-55
2022/06/05 10:57:03;;;;;;;;;;;20.90;95.80;;;;;;5033216;28;37646;-54
2022/06/05 10:59:36;;;;;;;;;;;20.80;95.70;;;;;;5033251;28;39846;-53
2022/06/05 11:02:17;;;;;;;;;;;20.80;96.10;;;;;;5032045;28;37419;-53
2022/06/05 11:04:49;;;;;;;;;;;20.80;96.10;;;;;;5033423;28;37033;-53
2022/06/05 11:07:29;;;;;;;;;;;20.80;95.80;;;;;;5033262;28;38938;-53
2022/06/05 11:09:59;;;;;;;;;;;20.80;96.00;;;;;;5032732;28;38524;-53
2022/06/05 11:15:18;;;;;;;;;;;20.80;96.10;;;;;;5033714;28;38526;-54
2022/06/05 11:17:51;;;;;;;;;;;20.80;95.80;;;;;;5032559;28;38803;-53
2022/06/05 11:20:22;;;;;;;;;;;20.80;96.10;;;;;;5032913;28;38306;-54
2022/06/05 11:22:54;;;;;;;;;;;20.80;96.00;;;;;;5032345;28;37100;-54
2022/06/05 11:25:23;;;;;;;;;;;20.80;95.90;;;;;;5032295;28;36578;-54
2022/06/05 11:27:53;;;;;;;;;;;20.80;95.40;;;;;;5032253;28;37515;-55
2022/06/05 11:30:26;;;;;;;;;;;20.80;95.80;;;;;;5032431;28;38538;-54
2022/06/05 11:32:58;;;;;;;;;;;20.80;96.70;;;;;;5032328;28;37457;-54
2022/06/05 11:35:31;;;;;;;;;;;20.90;94.70;;;;;;5032084;28;35295;-54
2022/06/05 11:38:00;;;;;;;;;;;20.90;95.70;;;;;;5032646;28;37503;-53
2022/06/05 11:40:31;;;;;;;;;;;20.90;95.10;;;;;;5032469;28;36641;-53
2022/06/05 11:43:06;;;;;;;;;;;21.00;95.90;;;;;;5032393;28;36953;-53
2022/06/05 11:45:38;;;;;;;;;;;20.90;95.40;;;;;;5032202;28;37037;-53
2022/06/05 11:48:10;;;;;;;;;;;21.00;95.90;;;;;;5032215;28;37472;-53
2022/06/05 11:50:41;;;;;;;;;;;21.00;95.00;;;;;;5031787;28;41881;-53
2022/06/05 11:53:13;;;;;;;;;;;21.00;95.10;;;;;;5032004;28;37868;-54
2022/06/05 11:55:43;;;;;;;;;;;21.00;95.30;;;;;;5031922;28;35054;-53
2022/06/05 11:58:12;;;;;;;;;;;21.00;95.40;;;;;;5032807;28;38380;-54
2022/06/05 12:00:42;;;;;;;;;;;21.10;95.40;;;;;;5031658;28;38758;-52
2022/06/05 12:03:15;;;;;;;;;;;21.10;95.50;;;;;;5032826;28;38347;-54
2022/06/05 12:05:48;;;;;;;;;;;21.20;95.40;;;;;;5035092;28;36844;-54
2022/06/05 12:08:19;;;;;;;;;;;21.20;94.80;;;;;;5035802;28;37496;-54
2022/06/05 12:10:52;;;;;;;;;;;21.30;95.30;;;;;;5035009;28;36624;-55
2022/06/05 12:13:35;;;;;;;;;;;21.30;94.30;;;;;;5035534;28;37992;-54
2022/06/05 12:16:04;;;;;;;;;;;21.30;93.80;;;;;;5035123;28;36067;-52
2022/06/05 12:18:33;;;;;;;;;;;21.30;93.50;;;;;;5035261;28;37850;-54
2022/06/05 12:21:05;;;;;;;;;;;21.30;94.20;;;;;;5035066;28;38684;-52
2022/06/05 12:23:34;;;;;;;;;;;21.40;95.10;;;;;;5035837;28;35884;-54
2022/06/05 12:26:03;;;;;;;;;;;21.40;94.60;;;;;;5034947;28;35053;-54
2022/06/05 12:28:33;;;;;;;;;;;21.40;93.70;;;;;;5035219;28;37403;-53
2022/06/05 12:31:15;;;;;;;;;;;21.40;94.30;;;;;;5034742;28;37825;-54
2022/06/05 12:33:43;;;;;;;;;;;21.40;94.10;;;;;;5035359;28;35894;-53
2022/06/05 12:36:15;;;;;;;;;;;21.40;94.10;;;;;;5035060;28;36271;-54
2022/06/05 12:38:45;;;;;;;;;;;21.50;93.90;;;;;;5034964;28;38506;-53
2022/06/05 12:41:15;;;;;;;;;;;21.50;94.80;;;;;;5034711;28;38399;-54
2022/06/05 12:43:47;;;;;;;;;;;21.50;93.10;;;;;;5034955;28;37757;-54
2022/06/05 12:46:18;;;;;;;;;;;21.50;93.70;;;;;;5034879;28;36148;-54
2022/06/05 12:48:45;;;;;;;;;;;21.50;93.30;;;;;;5033988;28;37790;-54
2022/06/05 12:51:15;;;;;;;;;;;21.50;93.60;;;;;;5034408;28;38511;-54
2022/06/05 12:53:45;;;;;;;;;;;21.50;92.40;;;;;;5034076;28;36813;-54
2022/06/05 12:56:20;;;;;;;;;;;21.50;93.00;;;;;;5034124;28;37072;-54
2022/06/05 12:58:49;;;;;;;;;;;21.50;92.90;;;;;;5034652;28;36348;-54
2022/06/05 13:01:19;;;;;;;;;;;21.50;92.20;;;;;;5034372;28;37737;-54
2022/06/05 13:03:50;;;;;;;;;;;21.50;92.10;;;;;;5034508;28;37660;-54
2022/06/05 13:06:20;;;;;;;;;;;21.50;93.40;;;;;;5034515;28;36106;-54
2022/06/05 13:08:49;;;;;;;;;;;21.50;92.00;;;;;;5035292;28;36923;-54
2022/06/05 13:11:20;;;;;;;;;;;21.50;93.10;;;;;;5035033;28;36829;-53
2022/06/05 13:13:50;;;;;;;;;;;21.50;93.10;;;;;;5034208;28;35676;-55
2022/06/05 13:16:23;;;;;;;;;;;21.50;92.10;;;;;;5034924;28;36550;-53
2022/06/05 13:18:58;;;;;;;;;;;21.50;92.70;;;;;;5033722;28;40487;-54
2022/06/05 13:21:29;;;;;;;;;;;21.50;92.90;;;;;;5034175;28;36656;-53
2022/06/05 13:23:58;;;;;;;;;;;21.50;92.50;;;;;;5033305;28;38346;-52
2022/06/05 13:26:31;;;;;;;;;;;21.40;92.90;;;;;;5034695;28;35799;-54
2022/06/05 13:29:01;;;;;;;;;;;21.40;92.90;;;;;;5034054;28;39079;-53
2022/06/05 13:31:32;;;;;;;;;;;21.40;93.50;;;;;;5033935;28;39156;-54
2022/06/05 13:34:05;;;;;;;;;;;21.40;92.90;;;;;;5033163;28;35613;-54
2022/06/05 13:36:36;;;;;;;;;;;21.40;93.50;;;;;;5034527;28;37494;-53
2022/06/05 13:39:06;;;;;;;;;;;21.40;93.20;;;;;;5033497;28;37684;-55
2022/06/05 13:41:38;;;;;;;;;;;21.40;93.30;;;;;;5033910;28;37925;-53
2022/06/05 13:44:20;;;;;;;;;;;21.40;93.60;;;;;;5033750;28;35835;-53
2022/06/05 13:46:52;;;;;;;;;;;21.40;93.90;;;;;;5033903;28;37176;-54
2022/06/05 13:49:21;;;;;;;;;;;21.40;93.50;;;;;;5032782;28;37926;-53
2022/06/05 13:51:56;;;;;;;;;;;21.50;94.40;;;;;;5033382;28;37895;-53
2022/06/05 13:54:30;;;;;;;;;;;21.50;94.30;;;;;;5033817;28;37821;-54
2022/06/05 13:57:00;;;;;;;;;;;21.50;93.90;;;;;;5033851;28;37225;-51
2022/06/05 13:59:28;;;;;;;;;;;21.60;94.60;;;;;;5033171;28;36676;-53
2022/06/05 14:02:01;;;;;;;;;;;21.60;94.70;;;;;;5033634;28;37685;-54
2022/06/05 14:04:29;;;;;;;;;;;21.70;95.10;;;;;;5033045;28;37584;-53
2022/06/05 14:06:59;;;;;;;;;;;21.70;93.70;;;;;;5033813;28;36175;-55
2022/06/05 14:09:33;;;;;;;;;;;21.70;92.90;;;;;;5032216;28;36522;-54
2022/06/05 14:12:00;;;;;;;;;;;21.80;92.20;;;;;;5032971;28;38021;-54
2022/06/05 14:14:40;;;;;;;;;;;21.80;92.40;;;;;;5032917;28;37225;-54
2022/06/05 14:17:09;;;;;;;;;;;21.80;92.50;;;;;;5033460;28;35055;-53
2022/06/05 14:19:38;;;;;;;;;;;21.80;92.60;;;;;;5033879;28;38294;-54
2022/06/05 14:22:13;;;;;;;;;;;21.80;91.60;;;;;;5033598;28;38717;-54
2022/06/05 14:24:42;;;;;;;;;;;21.80;92.80;;;;;;5033596;28;37019;-53
2022/06/05 14:27:14;;;;;;;;;;;21.90;92.70;;;;;;5031938;28;36516;-54
2022/06/05 14:29:45;;;;;;;;;;;21.80;91.50;;;;;;5032980;28;37575;-54
2022/06/05 14:32:18;;;;;;;;;;;21.80;90.80;;;;;;5032487;28;37883;-53
2022/06/05 14:34:46;;;;;;;;;;;21.90;91.30;;;;;;5033614;28;36846;-54
2022/06/05 14:37:24;;;;;;;;;;;21.80;92.20;;;;;;5033744;28;36773;-53
2022/06/05 14:39:52;;;;;;;;;;;21.80;92.10;;;;;;5033081;28;37930;-53
2022/06/05 14:42:23;;;;;;;;;;;21.90;91.10;;;;;;5032856;28;37800;-55
2022/06/05 14:44:53;;;;;;;;;;;21.80;91.40;;;;;;5033130;28;37085;-53
2022/06/05 14:47:27;;;;;;;;;;;21.80;91.30;;;;;;5032759;28;36251;-54